Archival Weather

Ronald Reagan Washington Ntl

Arlington, Virginia (KDCA)

Report from: Sunday, March 19, 2023 9:52 PM EDT
Current time: Saturday, July 13, 2024 10:17 PM EDT

Current weather – Weather history – Daily summaries
Weather forecast

Temperature2.8°C (37.0°F)
Wind chill0.2°C (32.4°F)
Dew point-12.2°C (10.0°F)
Winds 5 kts (2.6 m/s, 5.8 mph) West (280°)
Visibility10 mi. (16.1 km)
Clouds Sky clear
Altimeter30.29 in.Hg (1026 mB)
Relative humidity32 %
Density altitude-1,853 ft. (-565 m)
Sea-level pressure102.6 kPa (1026 mB, 30.28 in.Hg)
Remarks System requires maintenance
Automated weather observing station with precipitation discriminator
Flight conditions Visual Meteorological Conditions
Raw dataKDCA 200152Z 28005KT 10SM CLR 03/M12 A3029 RMK AO2 SLP255 T00281122 $
An error has occurred. This application may no longer respond until reloaded. Reload 🗙